Time;durP1;ratioP1;P1;durP2;ratioP2;P2;SDS_P1;SDS_P2;PMS_P1;PMS_P2;Temp;Humidity;BMP_temperature;BMP_pressure;BME280_temperature;BME280_humidity;BME280_pressure;Samples;Min_cycle;Max_cycle;Signal;HPM_P1;HPM_P2
2022/06/03 00:05:00;;;;;;;0.60;0.43;;;;;;;15.78;41.66;98294.72;10111751;29;20094;-77
2022/06/03 00:18:27;;;;;;;2.25;0.55;;;;;;;15.65;42.27;98284.88;10139570;29;20464;-77
2022/06/03 00:24:52;;;;;;;2.28;0.60;;;;;;;15.78;43.23;98280.66;10137936;29;20049;-78
2022/06/03 00:37:57;;;;;;;1.67;0.47;;;;;;;15.78;43.17;98294.72;10139082;29;20051;-77
2022/06/03 00:44:09;;;;;;;2.20;0.52;;;;;;;15.63;43.48;98292.47;10137536;29;20079;-77
2022/06/03 00:49:45;;;;;;;0.68;0.40;;;;;;;15.55;43.50;98280.75;10121290;29;20120;-77
2022/06/03 00:55:23;;;;;;;1.42;0.43;;;;;;;15.49;43.57;98266.31;10111394;29;20463;-77
2022/06/03 01:01:50;;;;;;;0.95;0.68;;;;;;;15.42;44.30;98277.22;10110668;29;20112;-78
2022/06/03 01:30:59;;;;;;;2.88;0.60;;;;;;;15.32;44.64;98264.66;10106159;29;20049;-77
2022/06/03 01:44:47;;;;;;;1.20;0.57;;;;;;;15.34;45.23;98264.78;10144351;29;20062;-77
2022/06/03 01:59:22;;;;;;;1.95;0.55;;;;;;;15.27;45.45;98243.28;10139541;29;20460;-77
2022/06/03 02:06:23;;;;;;;1.88;0.70;;;;;;;15.13;46.41;98248.81;10147978;29;20049;-77
2022/06/03 02:11:52;;;;;;;1.40;0.75;;;;;;;15.07;45.82;98240.78;10135009;29;20410;-77
2022/06/03 02:17:53;;;;;;;0.95;0.70;;;;;;;15.04;46.39;98239.19;10135258;29;20057;-77
2022/06/03 02:24:24;;;;;;;1.38;0.80;;;;;;;14.92;46.56;98241.28;10105463;29;20400;-77
2022/06/03 02:30:46;;;;;;;1.20;0.68;;;;;;;14.84;46.74;98241.56;10105345;29;20057;-77
2022/06/03 02:36:40;;;;;;;;;;;;;;;14.76;47.19;98237.53;10134176;29;20053;-77
2022/06/03 02:42:11;;;;;;;1.50;0.80;;;;;;;14.73;47.13;98247.91;10133823;29;19929;-77
2022/06/03 02:48:37;;;;;;;3.20;0.90;;;;;;;14.75;47.40;98244.50;10133851;29;20049;-76
2022/06/03 02:55:14;;;;;;;1.88;0.90;;;;;;;14.70;47.65;98240.00;10137565;29;20057;-77
2022/06/03 03:33:03;;;;;;;1.98;0.70;;;;;;;14.56;48.63;98259.53;10108193;29;20049;-76
2022/06/03 03:47:45;;;;;;;3.45;1.10;;;;;;;14.66;48.79;98267.84;10111753;29;20045;-77
2022/06/03 03:53:33;;;;;;;1.50;0.90;;;;;;;14.66;49.07;98267.84;10122388;29;20063;-77
2022/06/03 03:59:47;;;;;;;2.25;0.85;;;;;;;14.77;49.30;98281.91;10096913;29;20290;-76
2022/06/03 04:29:36;;;;;;;1.90;1.00;;;;;;;15.32;48.68;98290.72;10015326;29;20044;-77
2022/06/03 04:44:01;;;;;;;5.97;1.20;;;;;;;15.58;48.11;98288.69;10140478;29;20052;-77
2022/06/03 04:50:00;;;;;;;2.63;1.05;;;;;;;15.75;48.02;98295.97;10129552;29;20440;-77
2022/06/03 04:56:29;;;;;;;2.65;1.27;;;;;;;16.30;47.59;98294.06;10124137;29;20131;-77
2022/06/03 05:02:55;;;;;;;1.65;1.15;;;;;;;17.11;46.33;98291.25;10101529;29;20060;-76
2022/06/03 05:08:35;;;;;;;4.47;1.45;;;;;;;17.70;45.93;98292.06;10118821;29;20048;-77
2022/06/03 05:15:01;;;;;;;1.90;1.25;;;;;;;17.86;44.52;98286.47;10129531;29;20049;-79
2022/06/03 05:20:43;;;;;;;3.08;1.40;;;;;;;18.05;44.04;98290.13;10100185;29;20061;-78
2022/06/03 05:26:26;;;;;;;4.03;1.20;;;;;;;18.23;43.79;98293.81;10141702;29;20057;-79
2022/06/03 05:32:10;;;;;;;3.80;1.45;;;;;;;18.58;42.63;98293.28;10089889;29;20048;-80
2022/06/03 05:37:48;;;;;;;;;;;;;;;19.45;41.63;98299.19;10111299;29;20053;-79
2022/06/03 05:43:17;;;;;;;5.45;1.48;;;;;;;19.87;41.60;98296.63;10076621;29;20286;-78
2022/06/03 05:49:10;;;;;;;4.57;1.45;;;;;;;19.94;41.47;98295.50;10099527;29;20049;-78
2022/06/03 05:54:52;;;;;;;3.42;1.25;;;;;;;20.38;39.94;98296.50;10126935;29;20064;-79
2022/06/03 06:07:18;;;;;;;4.10;1.75;;;;;;;21.27;38.10;98287.69;10064027;29;20061;-78
2022/06/03 06:12:56;;;;;;;2.15;1.63;;;;;;;22.74;35.89;98278.03;10036950;29;20065;-76
2022/06/03 06:18:36;;;;;;;6.20;1.95;;;;;;;23.94;34.84;98289.72;10024767;29;20060;-76
2022/06/03 06:24:18;;;;;;;4.20;1.50;;;;;;;26.32;31.04;98279.88;10051349;29;20437;-76
2022/06/03 06:30:01;;;;;;;4.47;1.48;;;;;;;28.43;29.55;98272.63;10018811;29;20064;-77
2022/06/03 06:35:50;;;;;;;2.13;1.02;;;;;;;30.19;23.82;98274.38;10024610;29;20050;-76
2022/06/03 06:41:19;;;;;;;2.88;1.27;;;;;;;31.14;23.69;98274.72;10011914;29;20058;-77
2022/06/03 06:46:52;;;;;;;6.97;1.20;;;;;;;31.22;23.45;98271.84;9998280;29;20118;-78
2022/06/03 06:52:37;;;;;;;3.47;1.25;;;;;;;32.40;22.61;98270.81;10010532;29;20097;-77
2022/06/03 06:58:01;;;;;;;8.77;1.40;;;;;;;34.04;19.35;98256.19;10012789;29;20050;-78
2022/06/03 07:03:39;;;;;;;6.05;1.45;;;;;;;36.08;16.48;98257.50;10030576;29;20063;-77
2022/06/03 07:09:25;;;;;;;5.40;1.13;;;;;;;38.54;14.26;98252.69;10073490;29;20059;-80
2022/06/03 07:14:56;;;;;;;9.15;1.48;;;;;;;40.89;11.64;98246.63;10072830;29;20501;-80
2022/06/03 07:20:30;;;;;;;6.85;1.50;;;;;;;42.58;10.97;98235.97;10072964;29;20065;-79
2022/06/03 07:25:56;;;;;;;5.35;1.23;;;;;;;44.90;9.65;98223.84;10100130;29;20116;-77
2022/06/03 07:31:20;;;;;;;5.95;1.17;;;;;;;46.25;9.41;98231.06;10085833;29;20053;-80
2022/06/03 07:37:15;;;;;;;4.72;1.10;;;;;;;47.50;7.55;98238.28;10077190;29;20500;-80
2022/06/03 07:42:44;;;;;;;4.30;1.00;;;;;;;47.86;7.39;98228.88;10066587;29;20499;-80
2022/06/03 07:48:19;;;;;;;2.65;0.80;;;;;;;48.62;6.60;98223.72;10111426;29;20060;-79
2022/06/03 07:54:03;;;;;;;3.83;0.90;;;;;;;48.80;6.37;98224.53;10112061;29;20095;-79
2022/06/03 07:59:33;;;;;;;4.45;0.80;;;;;;;46.03;7.08;98211.94;10098671;29;20063;-79
2022/06/03 08:05:17;;;;;;;5.05;1.00;;;;;;;45.70;8.19;98208.28;10110211;29;20068;-79
2022/06/03 08:10:57;;;;;;;2.42;0.50;;;;;;;45.66;8.23;98209.25;10122833;29;20067;-80
2022/06/03 08:16:29;;;;;;;6.32;0.90;;;;;;;45.30;8.31;98200.63;10111362;29;20053;-79
2022/06/03 08:21:58;;;;;;;5.32;0.85;;;;;;;46.41;7.94;98209.25;10083249;29;20490;-79
2022/06/03 08:27:24;;;;;;;4.85;0.77;;;;;;;46.31;7.75;98191.56;10059232;29;20061;-78
2022/06/03 08:33:10;;;;;;;3.15;0.75;;;;;;;46.86;7.49;98196.53;10060661;29;20156;-79
2022/06/03 08:38:38;;;;;;;3.50;0.93;;;;;;;45.89;7.61;98204.78;10071356;29;20061;-80
2022/06/03 08:44:31;;;;;;;4.55;0.60;;;;;;;46.52;7.51;98197.44;10058754;29;20159;-79
2022/06/03 08:50:01;;;;;;;4.97;0.57;;;;;;;48.31;7.17;98195.88;10065197;29;20488;-81
2022/06/03 08:55:34;;;;;;;4.38;0.82;;;;;;;49.01;6.56;98188.03;10070871;29;20057;-81
2022/06/03 09:01:16;;;;;;;1.92;0.45;;;;;;;49.80;6.06;98195.53;10071127;29;20056;-81
2022/06/03 09:06:47;;;;;;;1.90;0.50;;;;;;;51.33;5.89;98188.66;10084418;29;20064;-79
2022/06/03 09:12:19;;;;;;;3.67;0.80;;;;;;;50.97;5.63;98181.50;10087930;29;20068;-80
2022/06/03 09:18:06;;;;;;;2.83;0.60;;;;;;;51.65;4.95;98184.25;10072986;29;20050;-79
2022/06/03 09:23:29;;;;;;;3.05;0.60;;;;;;;51.21;5.22;98178.59;10074517;29;20064;-78
2022/06/03 09:28:53;;;;;;;3.85;0.60;;;;;;;51.82;5.06;98189.38;10081791;29;20053;-78
2022/06/03 09:34:21;;;;;;;1.80;0.68;;;;;;;51.39;5.58;98178.47;10108359;29;20120;-78
2022/06/03 09:39:49;;;;;;;;;;;;;;;51.07;5.43;98162.06;10083497;29;20076;-77
2022/06/03 09:45:23;;;;;;;2.72;0.60;;;;;;;49.74;6.29;98154.53;10109092;29;19930;-79
2022/06/03 09:50:56;;;;;;;2.22;0.50;;;;;;;50.35;6.19;98143.28;10076025;29;20132;-78
2022/06/03 09:56:32;;;;;;;2.92;0.50;;;;;;;48.38;6.88;98143.50;10084030;29;20450;-79
2022/06/03 10:02:01;;;;;;;3.77;0.60;;;;;;;48.26;7.09;98144.47;10090691;29;20067;-77
2022/06/03 10:07:30;;;;;;;2.58;0.68;;;;;;;48.73;7.24;98126.59;10126499;29;20496;-79
2022/06/03 10:13:06;;;;;;;1.83;0.60;;;;;;;49.76;6.73;98128.38;10101433;29;20456;-80
2022/06/03 10:18:51;;;;;;;2.23;0.70;;;;;;;49.70;6.61;98113.34;10116935;29;20060;-78
2022/06/03 10:24:20;;;;;;;2.58;0.80;;;;;;;48.33;7.00;98109.16;10114808;29;20196;-78
2022/06/03 10:29:49;;;;;;;2.40;0.77;;;;;;;49.10;7.17;98102.13;10101508;29;20048;-78
2022/06/03 10:35:27;;;;;;;2.70;1.00;;;;;;;49.74;6.81;98086.31;10085235;29;20065;-79
2022/06/03 10:41:09;;;;;;;2.22;0.90;;;;;;;48.93;6.62;98079.06;10103397;29;20053;-78
2022/06/03 10:46:34;;;;;;;2.17;0.70;;;;;;;47.47;7.29;98085.56;10102721;29;20086;-77
2022/06/03 11:04:12;;;;;;;2.92;0.60;;;;;;;42.37;10.02;98047.19;10093147;29;20064;-81
2022/06/03 11:10:28;;;;;;;5.20;0.53;;;;;;;37.86;12.84;98038.09;10087120;29;20057;-81
2022/06/03 11:16:25;;;;;;;2.33;0.47;;;;;;;34.06;16.02;98038.22;10094806;29;20057;-80
2022/06/03 11:22:17;;;;;;;3.05;0.73;;;;;;;32.72;19.04;98029.88;10093148;29;20052;-81
2022/06/03 11:27:57;;;;;;;3.92;0.57;;;;;;;32.60;19.30;98010.53;10102198;29;20056;-81
2022/06/03 11:33:34;;;;;;;2.85;0.70;;;;;;;31.40;19.34;98006.38;10089123;29;20518;-81
2022/06/03 11:38:55;;;;;;;1.77;0.70;;;;;;;31.62;19.93;97988.09;10100884;29;20516;-81
2022/06/03 11:44:25;;;;;;;2.55;0.80;;;;;;;30.96;20.44;97976.53;10080077;29;20416;-81
2022/06/03 11:49:46;;;;;;;3.75;0.90;;;;;;;30.97;20.83;97968.59;10072112;29;20057;-79
2022/06/03 11:55:08;;;;;;;3.40;0.70;;;;;;;30.65;20.99;97963.88;10099496;29;20407;-79
2022/06/03 12:00:31;;;;;;;3.67;0.60;;;;;;;29.89;22.15;97949.28;10097049;29;20400;-79
2022/06/03 12:05:58;;;;;;;1.52;0.70;;;;;;;29.86;22.47;97939.22;10096827;29;20511;-78
2022/06/03 12:17:09;;;;;;;1.63;0.60;;;;;;;29.35;22.91;97934.44;10115275;29;20056;-79
2022/06/03 12:22:30;;;;;;;1.38;0.60;;;;;;;28.79;23.33;97915.88;10122138;29;20067;-79
2022/06/03 12:28:19;;;;;;;2.97;0.80;;;;;;;28.95;23.01;97918.03;10122070;29;20057;-79
2022/06/03 12:34:01;;;;;;;2.85;0.40;;;;;;;28.84;23.32;97921.63;10109278;29;20123;-78
2022/06/03 12:39:31;;;;;;;1.60;0.43;;;;;;;28.68;22.98;97900.13;10110426;29;20416;-79
2022/06/03 12:45:02;;;;;;;3.40;0.47;;;;;;;29.21;22.53;97894.22;10121781;29;20120;-78
2022/06/03 12:50:32;;;;;;;1.97;0.60;;;;;;;28.93;22.66;97905.81;10121527;29;20049;-79
2022/06/03 12:55:58;;;;;;;1.38;0.55;;;;;;;28.73;22.79;97901.53;10095905;29;20539;-78
2022/06/03 13:01:45;;;;;;;1.48;0.40;;;;;;;28.89;23.34;97883.56;10060268;29;20123;-80
2022/06/03 13:07:11;;;;;;;2.90;0.70;;;;;;;28.86;22.85;97890.03;10057497;29;20060;-78
2022/06/03 13:12:32;;;;;;;2.03;0.77;;;;;;;28.90;23.20;97895.78;10069894;29;20064;-80
2022/06/03 13:23:38;;;;;;;1.48;0.40;;;;;;;28.59;23.53;97875.72;10085226;29;20072;-80
2022/06/03 13:29:06;;;;;;;3.08;0.60;;;;;;;28.56;23.91;97871.41;10091154;29;20053;-82
2022/06/03 13:34:28;;;;;;;2.85;0.50;;;;;;;28.52;23.77;97889.38;10077602;29;20136;-80
2022/06/03 13:39:50;;;;;;;5.70;0.57;;;;;;;28.79;23.64;97892.91;10077077;29;20053;-80
2022/06/03 13:45:21;;;;;;;3.87;0.50;;;;;;;28.91;23.63;97862.75;10089383;29;20057;-82
2022/06/03 13:50:43;;;;;;;1.27;0.40;;;;;;;28.93;23.34;97877.81;10076424;29;20057;-80
2022/06/03 13:56:07;;;;;;;1.03;0.47;;;;;;;28.82;23.75;97872.78;10098079;29;20135;-78
2022/06/03 14:01:55;;;;;;;1.27;0.50;;;;;;;28.99;23.59;97877.09;10112411;29;20116;-81
2022/06/03 14:07:25;;;;;;;1.13;0.50;;;;;;;28.62;23.78;97890.78;10113772;29;20127;-78
2022/06/03 14:13:02;;;;;;;2.03;0.45;;;;;;;28.41;23.90;97867.16;10114633;29;20052;-78
2022/06/03 14:18:57;;;;;;;1.75;0.40;;;;;;;28.22;24.63;97875.03;10095474;29;20052;-77
2022/06/03 14:24:36;;;;;;;2.13;0.50;;;;;;;28.62;24.37;97857.06;10115807;29;20064;-79
2022/06/03 14:30:06;;;;;;;2.22;0.57;;;;;;;28.69;24.11;97855.59;10100961;29;20152;-78
2022/06/03 14:35:30;;;;;;;2.97;0.60;;;;;;;28.44;24.42;97839.84;10080956;29;20072;-79
2022/06/03 14:40:51;;;;;;;0.95;0.40;;;;;;;28.43;24.21;97829.81;10061881;29;20076;-82
2022/06/03 14:46:20;;;;;;;3.53;0.47;;;;;;;28.51;24.12;97812.59;10061714;29;20063;-79
2022/06/03 14:51:47;;;;;;;1.00;0.40;;;;;;;28.87;24.08;97782.31;10062207;29;20060;-81
2022/06/03 14:57:09;;;;;;;2.28;0.60;;;;;;;28.76;24.30;97773.75;10061919;29;20184;-79
2022/06/03 15:02:33;;;;;;;3.03;1.48;;;;;;;28.59;24.12;97772.38;10061202;29;20065;-81
2022/06/03 15:08:06;;;;;;;1.77;0.50;;;;;;;28.42;24.49;97780.31;10086526;29;20057;-84
2022/06/03 15:13:28;;;;;;;2.50;0.57;;;;;;;28.37;24.87;97773.13;10091575;29;20053;-80
2022/06/03 15:18:49;;;;;;;1.08;0.60;;;;;;;28.36;24.79;97765.97;10112001;29;20049;-90
2022/06/03 15:24:11;;;;;;;;;;;;;;;28.44;24.78;97756.63;10099972;29;20092;-78
2022/06/03 15:29:32;;;;;;;1.55;0.50;;;;;;;28.39;24.79;97752.34;10124169;29;19924;-80
2022/06/03 15:35:03;;;;;;;1.63;0.50;;;;;;;28.37;24.91;97746.59;10098464;29;20407;-85
2022/06/03 15:40:43;;;;;;;0.93;0.43;;;;;;;28.59;24.61;97728.59;10085297;29;20064;-81
2022/06/03 15:46:05;;;;;;;2.03;0.60;;;;;;;28.70;24.83;97730.69;10082259;29;20048;-81
2022/06/03 15:51:26;;;;;;;0.90;0.50;;;;;;;28.63;24.87;97729.25;10059395;29;20496;-82
2022/06/03 15:56:57;;;;;;;1.70;0.53;;;;;;;28.60;24.66;97730.72;10059023;29;20053;-84
2022/06/03 16:02:19;;;;;;;2.55;0.60;;;;;;;28.51;25.63;97718.56;10071707;29;20442;-85
2022/06/03 16:07:46;;;;;;;1.90;0.57;;;;;;;28.41;25.63;97718.59;10085025;29;20525;-92
2022/06/03 16:13:17;;;;;;;3.22;0.50;;;;;;;28.47;25.83;97709.97;10071243;29;20057;-85
2022/06/03 16:19:02;;;;;;;3.17;0.55;;;;;;;28.45;26.03;97714.97;10071481;29;20064;-81
2022/06/03 16:25:00;;;;;;;1.10;0.50;;;;;;;28.24;26.64;97715.03;10071398;29;20488;-88
2022/06/03 16:30:34;;;;;;;1.73;0.60;;;;;;;28.36;26.24;97710.72;10058875;29;20508;-87
2022/06/03 16:36:11;;;;;;;0.90;0.50;;;;;;;28.17;26.91;97716.47;10070867;29;20271;-79
2022/06/03 16:42:09;;;;;;;1.55;0.60;;;;;;;28.17;27.42;97704.28;10071885;29;20131;-81
2022/06/03 16:47:50;;;;;;;1.20;0.50;;;;;;;28.04;27.50;97712.22;10073079;29;20053;-78
2022/06/03 16:53:15;;;;;;;3.42;0.63;;;;;;;27.64;28.43;97699.34;10062563;29;20045;-89
2022/06/03 16:58:49;;;;;;;1.92;0.68;;;;;;;27.67;28.68;97697.22;10098054;29;20136;-79
2022/06/03 17:04:10;;;;;;;;;;;;;;;27.63;29.28;97697.19;10130657;29;20145;-82
2022/06/03 17:09:32;;;;;;;1.77;0.70;;;;;;;27.48;28.74;97707.94;10103552;29;19952;-84
2022/06/03 17:14:54;;;;;;;1.80;0.75;;;;;;;27.35;29.55;97695.06;10090715;29;20128;-81
2022/06/03 17:20:15;;;;;;;1.60;0.80;;;;;;;27.22;29.79;97697.22;10116438;29;20056;-81
2022/06/03 17:25:43;;;;;;;2.42;0.73;;;;;;;27.03;30.30;97705.06;10106499;29;20049;-79
2022/06/03 17:31:11;;;;;;;1.67;0.70;;;;;;;26.94;31.04;97708.59;10087102;29;20144;-80
2022/06/03 17:37:00;;;;;;;1.52;0.70;;;;;;;26.75;30.68;97710.69;10049812;29;20504;-80
2022/06/03 17:42:27;;;;;;;1.13;0.65;;;;;;;26.60;31.06;97709.19;10101008;29;20057;-80
2022/06/03 17:47:52;;;;;;;1.30;0.68;;;;;;;26.45;31.72;97706.28;10115845;29;20057;-77
2022/06/03 17:59:19;;;;;;;3.55;0.80;;;;;;;26.35;32.42;97694.78;10116922;29;20506;-79
2022/06/03 18:04:46;;;;;;;1.85;0.60;;;;;;;26.18;32.32;97698.97;10088863;29;20096;-73
2022/06/03 18:10:10;;;;;;;2.00;0.90;;;;;;;26.01;32.91;97703.19;10088350;29;20140;-73
2022/06/03 18:15:31;;;;;;;2.67;0.90;;;;;;;25.85;32.58;97710.22;10088523;29;20065;-73
2022/06/03 18:20:52;;;;;;;1.90;0.80;;;;;;;25.80;32.92;97708.78;10062723;29;20061;-74
2022/06/03 18:26:34;;;;;;;2.58;1.33;;;;;;;25.64;35.04;97717.91;10101148;29;20060;-73
2022/06/03 18:32:16;;;;;;;3.33;1.40;;;;;;;25.31;35.69;97721.94;10100939;29;20048;-73
2022/06/03 18:37:59;;;;;;;3.77;1.30;;;;;;;25.12;36.27;97723.91;10087953;29;20465;-73
2022/06/03 18:43:23;;;;;;;;;;;;;;;25.01;36.93;97716.63;10087799;29;20499;-74
2022/06/03 18:49:03;;;;;;;4.47;1.38;;;;;;;24.86;37.84;97701.47;10083886;29;19928;-74
2022/06/03 18:54:35;;;;;;;4.22;1.55;;;;;;;24.72;37.39;97695.63;10049289;29;20053;-89
2022/06/03 19:00:16;;;;;;;3.00;1.43;;;;;;;24.61;38.53;97685.50;10051003;29;20091;-89
2022/06/03 19:05:44;;;;;;;1.75;1.20;;;;;;;24.57;38.34;97686.19;10061659;29;20064;-87
2022/06/03 19:11:21;;;;;;;2.58;1.60;;;;;;;24.48;38.78;97699.63;10035879;29;20057;-86
2022/06/03 19:17:11;;;;;;;3.38;1.55;;;;;;;24.40;39.40;97701.66;10032767;29;20053;-77
2022/06/03 19:22:50;;;;;;;3.03;1.27;;;;;;;24.33;39.74;97694.47;10021633;29;20178;-78
2022/06/03 19:28:27;;;;;;;3.65;1.50;;;;;;;24.25;39.95;97697.91;10071191;29;20045;-77
2022/06/03 19:33:56;;;;;;;5.43;1.88;;;;;;;24.22;40.24;97702.13;10051401;29;20434;-77
2022/06/03 19:39:45;;;;;;;4.63;1.80;;;;;;;24.20;40.69;97699.97;10062720;29;20060;-77
2022/06/03 19:46:04;;;;;;;4.00;1.40;;;;;;;24.12;40.79;97701.97;10066403;29;20069;-78
2022/06/03 19:52:10;;;;;;;2.70;1.70;;;;;;;24.02;40.73;97699.72;10073605;29;20045;-78
2022/06/03 19:57:31;;;;;;;2.53;1.30;;;;;;;24.02;40.56;97702.56;9926972;29;20066;-78
2022/06/03 20:03:05;;;;;;;3.92;1.30;;;;;;;23.97;40.64;97703.94;10080181;29;20061;-78
2022/06/03 20:09:01;;;;;;;4.40;1.67;;;;;;;23.91;41.09;97713.09;10089100;29;20056;-77
2022/06/03 20:14:31;;;;;;;4.80;3.50;;;;;;;23.85;41.38;97729.41;10089042;29;20064;-78
2022/06/03 20:19:59;;;;;;;3.10;1.90;;;;;;;23.78;41.35;97722.19;10121731;29;20059;-77
2022/06/03 20:26:02;;;;;;;4.05;2.78;;;;;;;23.73;40.97;97720.66;10098761;29;20052;-78
2022/06/03 20:31:22;;;;;;;7.18;1.88;;;;;;;23.67;41.35;97729.84;9925834;29;20480;-78
2022/06/03 20:36:59;;;;;;;2.78;2.00;;;;;;;23.55;42.18;97744.59;10078371;29;20492;-77
2022/06/03 20:42:30;;;;;;;6.80;2.17;;;;;;;23.52;41.76;97737.41;10086084;29;20061;-78
2022/06/03 20:48:10;;;;;;;3.53;1.63;;;;;;;23.40;42.02;97720.84;10086704;29;20080;-78
2022/06/03 20:53:32;;;;;;;4.20;1.77;;;;;;;23.28;42.83;97728.47;10098929;29;20052;-78
2022/06/03 20:59:04;;;;;;;3.50;1.65;;;;;;;23.20;42.79;97731.19;10084626;29;20059;-78
2022/06/03 21:15:49;;;;;;;3.88;1.80;;;;;;;23.24;42.90;97736.94;10100979;29;20075;-78
2022/06/03 21:21:20;;;;;;;3.95;1.77;;;;;;;23.20;43.34;97726.19;10121324;29;20064;-78
2022/06/03 21:26:41;;;;;;;2.08;1.70;;;;;;;23.05;43.98;97725.22;10108195;29;20048;-77
2022/06/03 21:32:53;;;;;;;6.50;1.65;;;;;;;22.93;44.43;97730.69;10108561;29;20053;-77
2022/06/03 21:38:41;;;;;;;4.20;2.25;;;;;;;22.84;44.58;97726.97;10115655;29;20057;-78
2022/06/03 21:44:27;;;;;;;2.42;1.73;;;;;;;22.84;43.95;97737.63;10090163;29;20467;-78
2022/06/03 21:50:04;;;;;;;3.20;1.85;;;;;;;22.77;44.68;97739.59;10115402;29;20057;-77
2022/06/03 21:55:35;;;;;;;3.58;1.67;;;;;;;22.69;44.53;97752.97;10114901;29;20084;-78
2022/06/03 22:00:59;;;;;;;4.38;2.17;;;;;;;22.59;45.09;97772.69;10037978;29;20462;-78
2022/06/03 22:06:19;;;;;;;2.70;1.65;;;;;;;22.59;45.01;97786.91;10025494;29;20053;-77
2022/06/03 22:17:19;;;;;;;4.80;2.08;;;;;;;22.59;45.06;97801.13;10042454;29;20061;-77
2022/06/03 22:22:40;;;;;;;5.35;2.55;;;;;;;22.48;46.17;97809.41;10032195;29;20407;-78
2022/06/03 22:28:06;;;;;;;3.80;2.05;;;;;;;22.44;46.41;97806.50;10078160;29;20060;-78
2022/06/03 22:33:39;;;;;;;4.85;2.20;;;;;;;22.30;48.05;97851.69;10086902;29;20052;-78
2022/06/03 22:39:12;;;;;;;4.50;2.58;;;;;;;21.90;50.83;97859.91;10089249;29;20057;-78
2022/06/03 22:44:32;;;;;;;5.93;2.90;;;;;;;21.63;50.21;97856.44;10082199;29;20052;-78
2022/06/03 22:49:53;;;;;;;5.78;2.40;;;;;;;21.22;52.30;97842.50;10086766;29;20500;-79
2022/06/03 22:55:14;;;;;;;6.28;2.42;;;;;;;20.56;61.70;97843.50;10081189;29;20049;-78
2022/06/03 23:00:34;;;;;;;4.15;1.60;;;;;;;20.14;59.24;97845.00;10111743;29;20060;-79
2022/06/03 23:05:55;;;;;;;3.10;1.45;;;;;;;19.17;62.83;97843.88;10074683;29;20545;-78
2022/06/03 23:11:16;;;;;;;3.72;1.42;;;;;;;18.80;66.49;97839.03;10051064;29;20056;-77
2022/06/03 23:16:37;;;;;;;2.63;1.58;;;;;;;18.65;68.49;97828.56;10049207;29;20433;-77
2022/06/03 23:21:57;;;;;;;4.72;1.35;;;;;;;18.69;68.23;97808.19;10051953;29;20484;-77
2022/06/03 23:27:18;;;;;;;2.38;1.20;;;;;;;18.84;69.33;97790.38;10058529;29;20458;-77
2022/06/03 23:32:39;;;;;;;3.25;1.30;;;;;;;18.87;70.07;97783.41;10037788;29;20088;-78
2022/06/03 23:37:59;;;;;;;4.65;1.23;;;;;;;18.78;70.00;97790.88;10049115;29;20374;-78
2022/06/03 23:49:00;;;;;;;4.05;1.10;;;;;;;18.46;72.40;97773.44;10040526;29;20045;-78
2022/06/03 23:54:20;;;;;;;3.53;1.02;;;;;;;18.48;71.78;97758.66;10046971;29;20058;-78
2022/06/03 23:59:41;;;;;;;1.38;0.98;;;;;;;18.53;72.99;97765.91;10045462;29;20061;-79
